Wetterdaten: Woche 06.08.01 - 12.08.01 (KW32)
Datum Zeit Temperatur Luftfeuchte Luftdruck Regenmenge Wind Richtung Taupunkt Windchill
06.08.2001 00:00 13.1 C 86 % 1017.8 hPa 0.0 l/m 0.4 km/h (0 Bft) O-SO 10.8 C 13.1 C
06.08.2001 01:00 12.6 C 88 % 1017.0 hPa 0.0 l/m 3.3 km/h (1 Bft) O-SO 10.7 C 12.6 C
06.08.2001 02:00 11.9 C 91 % 1017.0 hPa 0.0 l/m 1.5 km/h (1 Bft) O-SO 10.5 C 11.9 C
06.08.2001 03:00 11.0 C 93 % 1016.2 hPa 0.0 l/m 0.6 km/h (0 Bft) O-SO 10.0 C 11.0 C
06.08.2001 04:00 11.2 C 95 % 1016.0 hPa 0.0 l/m 0.7 km/h (0 Bft) O-SO 10.3 C 11.2 C
06.08.2001 05:00 11.5 C 94 % 1015.3 hPa 0.0 l/m 0.0 km/h (0 Bft) N 10.6 C 11.5 C
06.08.2001 06:00 11.5 C 93 % 1015.0 hPa 0.0 l/m 0.1 km/h (0 Bft) N 10.5 C 11.5 C
06.08.2001 07:00 12.4 C 91 % 1014.9 hPa 0.0 l/m 0.0 km/h (0 Bft) N 11.0 C 12.4 C
06.08.2001 08:00 14.0 C 85 % 1014.9 hPa 0.0 l/m 0.4 km/h (0 Bft) W 11.6 C 14.0 C
06.08.2001 09:00 15.7 C 78 % 1014.9 hPa 0.0 l/m 1.0 km/h (0 Bft) SO 12.0 C 15.7 C
06.08.2001 10:00 18.3 C 71 % 1014.8 hPa 0.0 l/m 5.7 km/h (1 Bft) SO 12.9 C 18.3 C
06.08.2001 11:00 18.4 C 72 % 1013.9 hPa 0.0 l/m 2.9 km/h (1 Bft) O-SO 13.2 C 18.4 C
06.08.2001 12:00 19.8 C 66 % 1013.9 hPa 0.0 l/m 1.9 km/h (1 Bft) SW 13.1 C 19.8 C
06.08.2001 13:00 20.4 C 57 % 1013.9 hPa 0.0 l/m 9.3 km/h (2 Bft) W-SW 11.7 C 20.4 C
06.08.2001 14:00 20.2 C 59 % 1013.9 hPa 0.0 l/m 6.0 km/h (2 Bft) W 12.1 C 20.2 C
06.08.2001 15:00 20.5 C 60 % 1013.9 hPa 0.0 l/m 11.5 km/h (2 Bft) W-NW 12.4 C 20.5 C
06.08.2001 16:00 18.7 C 73 % 1014.2 hPa 0.3 l/m 16.3 km/h (3 Bft) W-NW 13.6 C 18.7 C
06.08.2001 17:00 17.8 C 86 % 1014.1 hPa 0.0 l/m 3.2 km/h (1 Bft) O-SO 15.5 C 17.8 C
06.08.2001 18:00 20.1 C 74 % 1013.9 hPa 0.0 l/m 1.0 km/h (0 Bft) W 15.2 C 20.1 C
06.08.2001 19:00 20.3 C 71 % 1013.0 hPa 0.0 l/m 1.0 km/h (0 Bft) W 14.9 C 20.3 C
06.08.2001 20:00 18.6 C 77 % 1013.6 hPa 0.3 l/m 1.5 km/h (1 Bft) SO 14.5 C 18.6 C
06.08.2001 21:00 16.7 C 89 % 1013.5 hPa 0.6 l/m 0.1 km/h (0 Bft) N 14.9 C 16.7 C
06.08.2001 22:00 16.1 C 92 % 1013.6 hPa 0.0 l/m 0.9 km/h (0 Bft) O 14.8 C 16.1 C
06.08.2001 23:00 16.1 C 94 % 1013.1 hPa 0.0 l/m 0.0 km/h (0 Bft) N 15.0 C 16.1 C
07.08.2001 00:00 16.3 C 94 % 1013.7 hPa 0.0 l/m 0.0 km/h (0 Bft) N 15.4 C 16.3 C
07.08.2001 01:00 16.3 C 94 % 1013.9 hPa 1.0 l/m 0.3 km/h (0 Bft) O-SO 15.3 C 16.3 C
07.08.2001 02:00 16.1 C 94 % 1013.2 hPa 0.3 l/m 1.3 km/h (1 Bft) O-SO 15.1 C 16.1 C
07.08.2001 03:00 16.1 C 93 % 1012.8 hPa 0.0 l/m 0.7 km/h (0 Bft) O 15.0 C 16.1 C
07.08.2001 04:00 16.2 C 93 % 1012.8 hPa 0.0 l/m 3.1 km/h (1 Bft) SO 15.0 C 16.2 C
07.08.2001 05:00 16.1 C 93 % 1012.8 hPa 0.0 l/m 3.2 km/h (1 Bft) O-SO 15.0 C 16.1 C
07.08.2001 06:00 16.2 C 86 % 1012.8 hPa 0.0 l/m 2.0 km/h (1 Bft) O-SO 13.9 C 16.2 C
07.08.2001 07:00 16.5 C 78 % 1012.8 hPa 0.0 l/m 3.8 km/h (1 Bft) SO 12.6 C 16.5 C
07.08.2001 08:00 17.2 C 79 % 1012.8 hPa 0.0 l/m 1.8 km/h (1 Bft) O-SO 13.4 C 17.2 C
07.08.2001 09:00 17.9 C 79 % 1012.8 hPa 0.0 l/m 6.9 km/h (2 Bft) W-NW 14.1 C 17.9 C
07.08.2001 10:00 18.6 C 72 % 1012.8 hPa 0.0 l/m 17.1 km/h (3 Bft) W-NW 13.3 C 18.6 C
07.08.2001 11:00 20.1 C 65 % 1012.4 hPa 0.0 l/m 13.5 km/h (3 Bft) W-NW 13.4 C 20.1 C
07.08.2001 12:00 21.7 C 61 % 1011.8 hPa 0.0 l/m 11.3 km/h (2 Bft) W-NW 13.7 C 21.7 C
07.08.2001 13:00 22.4 C 58 % 1011.2 hPa 0.0 l/m 10.3 km/h (2 Bft) W-NW 13.8 C 22.4 C
07.08.2001 14:00 23.0 C 55 % 1010.8 hPa 0.0 l/m 10.9 km/h (2 Bft) W-NW 13.5 C 23.0 C
07.08.2001 15:00 23.6 C 55 % 1009.9 hPa 0.0 l/m 7.4 km/h (2 Bft) W 13.9 C 23.6 C
07.08.2001 16:00 24.2 C 52 % 1009.6 hPa 0.0 l/m 10.4 km/h (2 Bft) W-NW 13.8 C 24.2 C
07.08.2001 17:00 24.4 C 52 % 1009.0 hPa 0.0 l/m 13.5 km/h (3 Bft) W-NW 14.1 C 24.4 C
07.08.2001 18:00 23.4 C 57 % 1008.7 hPa 0.0 l/m 10.7 km/h (2 Bft) W-NW 14.3 C 23.4 C
07.08.2001 19:00 22.6 C 60 % 1008.4 hPa 0.0 l/m 4.3 km/h (1 Bft) W 14.3 C 22.6 C
07.08.2001 20:00 20.6 C 67 % 1007.6 hPa 0.0 l/m 0.1 km/h (0 Bft) S 14.3 C 20.6 C
07.08.2001 21:00 18.4 C 79 % 1007.6 hPa 0.0 l/m 5.6 km/h (1 Bft) O-SO 14.7 C 18.4 C
07.08.2001 22:00 17.9 C 82 % 1007.6 hPa 0.0 l/m 3.1 km/h (1 Bft) O-SO 14.8 C 17.9 C
07.08.2001 23:00 16.9 C 85 % 1007.6 hPa 0.0 l/m 3.1 km/h (1 Bft) O 14.4 C 16.9 C
08.08.2001 00:00 16.1 C 89 % 1007.5 hPa 0.0 l/m 2.7 km/h (1 Bft) O 14.3 C 16.1 C
08.08.2001 01:00 16.0 C 89 % 1006.7 hPa 0.0 l/m 0.1 km/h (0 Bft) O-SO 14.2 C 16.0 C
08.08.2001 02:00 15.7 C 90 % 1006.6 hPa 0.0 l/m 0.5 km/h (0 Bft) O 14.0 C 15.7 C
08.08.2001 03:00 15.0 C 93 % 1006.6 hPa 0.0 l/m 1.9 km/h (1 Bft) O-SO 13.8 C 15.0 C
08.08.2001 04:00 15.5 C 92 % 1006.6 hPa 0.0 l/m 0.0 km/h (0 Bft) N 14.2 C 15.5 C
08.08.2001 05:00 15.5 C 91 % 1005.9 hPa 0.0 l/m 0.8 km/h (0 Bft) O 14.0 C 15.5 C
08.08.2001 06:00 15.4 C 93 % 1006.6 hPa 0.3 l/m 0.4 km/h (0 Bft) O-SO 14.2 C 15.4 C
08.08.2001 07:00 15.7 C 94 % 1006.6 hPa 2.3 l/m 0.1 km/h (0 Bft) N 14.8 C 15.7 C
08.08.2001 08:00 16.2 C 94 % 1007.2 hPa 0.6 l/m 6.8 km/h (2 Bft) O-SO 15.3 C 16.2 C
08.08.2001 09:00 17.0 C 92 % 1007.6 hPa 1.3 l/m 6.9 km/h (2 Bft) SO 15.7 C 17.0 C
08.08.2001 10:00 17.5 C 92 % 1008.4 hPa 0.0 l/m 10.7 km/h (2 Bft) O-SO 16.2 C 17.5 C
08.08.2001 11:00 16.1 C 91 % 1009.3 hPa 8.7 l/m 10.5 km/h (2 Bft) NW 14.7 C 16.1 C
08.08.2001 12:00 16.0 C 92 % 1009.7 hPa 4.5 l/m 2.1 km/h (1 Bft) W-NW 14.8 C 16.0 C
08.08.2001 13:00 16.7 C 92 % 1009.7 hPa 1.6 l/m 0.6 km/h (0 Bft) O-SO 15.4 C 16.7 C
08.08.2001 14:00 19.2 C 84 % 1009.7 hPa 0.0 l/m 2.5 km/h (1 Bft) W-SW 16.4 C 19.2 C
08.08.2001 15:00 20.9 C 73 % 1009.7 hPa 0.0 l/m 4.7 km/h (1 Bft) W 15.9 C 20.9 C
08.08.2001 16:00 22.4 C 65 % 1008.9 hPa 0.0 l/m 3.5 km/h (1 Bft) O 15.5 C 22.4 C
08.08.2001 17:00 22.9 C 62 % 1008.7 hPa 0.0 l/m 3.1 km/h (1 Bft) O-SO 15.3 C 22.9 C
08.08.2001 18:00 21.2 C 72 % 1008.7 hPa 0.0 l/m 3.3 km/h (1 Bft) O-SO 16.0 C 21.2 C
08.08.2001 19:00 20.6 C 77 % 1008.7 hPa 0.0 l/m 1.5 km/h (1 Bft) O-SO 16.5 C 20.6 C
08.08.2001 20:00 18.5 C 84 % 1009.6 hPa 0.0 l/m 4.6 km/h (1 Bft) O-SO 15.6 C 18.5 C
08.08.2001 21:00 16.6 C 87 % 1009.7 hPa 0.0 l/m 4.1 km/h (1 Bft) O-SO 14.4 C 16.6 C
08.08.2001 22:00 16.1 C 91 % 1010.8 hPa 0.0 l/m 5.5 km/h (1 Bft) O-SO 14.6 C 16.1 C
08.08.2001 23:00 15.7 C 91 % 1010.8 hPa 0.0 l/m 6.0 km/h (2 Bft) O-SO 14.3 C 15.7 C
09.08.2001 00:00 15.7 C 92 % 1010.8 hPa 0.0 l/m 2.5 km/h (1 Bft) O-SO 14.4 C 15.7 C
09.08.2001 01:00 15.5 C 92 % 1010.9 hPa 0.0 l/m 0.3 km/h (0 Bft) N 14.3 C 15.5 C
09.08.2001 02:00 15.2 C 94 % 1011.0 hPa 0.0 l/m 0.0 km/h (0 Bft) N 14.1 C 15.2 C
09.08.2001 03:00 15.7 C 94 % 1010.8 hPa 0.0 l/m 0.0 km/h (0 Bft) N 14.7 C 15.7 C
09.08.2001 04:00 15.8 C 93 % 1010.8 hPa 0.0 l/m 0.0 km/h (0 Bft) N 14.6 C 15.8 C
09.08.2001 05:00 15.6 C 93 % 1011.6 hPa 0.0 l/m 0.0 km/h (0 Bft) N 14.5 C 15.6 C
09.08.2001 06:00 15.7 C 93 % 1011.8 hPa 0.0 l/m 0.2 km/h (0 Bft) NW 14.6 C 15.7 C
09.08.2001 07:00 16.2 C 93 % 1011.9 hPa 0.0 l/m 0.6 km/h (0 Bft) W 15.0 C 16.2 C
09.08.2001 08:00 16.8 C 87 % 1012.8 hPa 0.0 l/m 0.1 km/h (0 Bft) N 14.6 C 16.8 C
09.08.2001 09:00 17.2 C 79 % 1012.8 hPa 0.0 l/m 0.1 km/h (0 Bft) N 13.6 C 17.2 C
09.08.2001 10:00 18.0 C 73 % 1012.8 hPa 0.0 l/m 0.6 km/h (0 Bft) O 13.1 C 18.0 C
09.08.2001 11:00 19.2 C 67 % 1012.8 hPa 0.0 l/m 0.9 km/h (0 Bft) O 13.0 C 19.2 C
09.08.2001 12:00 20.1 C 64 % 1012.8 hPa 0.0 l/m 0.6 km/h (0 Bft) W-SW 13.0 C 20.1 C
09.08.2001 13:00 20.4 C 62 % 1012.8 hPa 0.0 l/m 3.4 km/h (1 Bft) W-NW 12.9 C 20.4 C
09.08.2001 14:00 21.4 C 59 % 1012.5 hPa 0.0 l/m 2.9 km/h (1 Bft) W-NW 13.1 C 21.4 C
09.08.2001 15:00 21.5 C 61 % 1012.4 hPa 0.0 l/m 3.0 km/h (1 Bft) W-NW 13.6 C 21.5 C
09.08.2001 16:00 20.5 C 64 % 1012.6 hPa 0.0 l/m 7.7 km/h (2 Bft) W-NW 13.5 C 20.5 C
09.08.2001 17:00 20.1 C 65 % 1012.3 hPa 0.0 l/m 8.7 km/h (2 Bft) W-NW 13.2 C 20.1 C
09.08.2001 18:00 19.2 C 71 % 1012.7 hPa 0.0 l/m 0.3 km/h (0 Bft) W 13.7 C 19.2 C
09.08.2001 19:00 18.2 C 77 % 1012.8 hPa 0.0 l/m 0.0 km/h (0 Bft) N 14.2 C 18.2 C
09.08.2001 20:00 17.7 C 83 % 1012.8 hPa 0.0 l/m 0.3 km/h (0 Bft) O-SO 14.7 C 17.7 C
09.08.2001 21:00 17.1 C 86 % 1013.7 hPa 2.2 l/m 0.6 km/h (0 Bft) O-SO 14.7 C 17.1 C
09.08.2001 22:00 16.1 C 92 % 1014.4 hPa 2.2 l/m 3.4 km/h (1 Bft) O-SO 14.8 C 16.1 C
09.08.2001 23:00 15.7 C 94 % 1014.4 hPa 0.9 l/m 0.5 km/h (0 Bft) O-SO 14.6 C 15.7 C
10.08.2001 00:00 15.6 C 94 % 1014.7 hPa 0.9 l/m 0.0 km/h (0 Bft) N 14.6 C 15.6 C
10.08.2001 01:00 15.4 C 95 % 1014.9 hPa 0.6 l/m 0.7 km/h (0 Bft) O-NO 14.6 C 15.4 C
10.08.2001 02:00 15.2 C 94 % 1014.9 hPa 0.3 l/m 0.0 km/h (0 Bft) N 14.3 C 15.2 C
10.08.2001 03:00 15.0 C 95 % 1015.9 hPa 0.0 l/m 0.2 km/h (0 Bft) W-SW 14.2 C 15.0 C
10.08.2001 04:00 14.4 C 95 % 1016.0 hPa 0.0 l/m 0.0 km/h (0 Bft) N 13.5 C 14.4 C
10.08.2001 05:00 13.7 C 95 % 1016.0 hPa 0.0 l/m 0.0 km/h (0 Bft) N 12.9 C 13.7 C
10.08.2001 06:00 14.1 C 95 % 1016.4 hPa 0.0 l/m 0.7 km/h (0 Bft) SW 13.4 C 14.1 C
10.08.2001 07:00 14.3 C 94 % 1017.1 hPa 0.0 l/m 1.0 km/h (0 Bft) W-NW 13.3 C 14.3 C
10.08.2001 08:00 14.3 C 85 % 1018.1 hPa 0.0 l/m 10.8 km/h (2 Bft) W-NW 11.9 C 14.3 C
10.08.2001 09:00 14.8 C 78 % 1018.1 hPa 0.0 l/m 11.2 km/h (2 Bft) W-NW 11.0 C 14.8 C
10.08.2001 10:00 15.9 C 70 % 1018.1 hPa 0.0 l/m 18.3 km/h (3 Bft) W-NW 10.5 C 15.9 C
10.08.2001 11:00 16.8 C 59 % 1018.8 hPa 0.0 l/m 18.4 km/h (3 Bft) W-NW 8.7 C 16.8 C
10.08.2001 12:00 17.9 C 51 % 1019.1 hPa 0.0 l/m 15.9 km/h (3 Bft) W-NW 7.6 C 17.9 C
10.08.2001 13:00 18.9 C 44 % 1019.1 hPa 0.0 l/m 22.1 km/h (4 Bft) W-NW 6.5 C 18.9 C
10.08.2001 14:00 19.7 C 41 % 1019.1 hPa 0.0 l/m 24.2 km/h (4 Bft) W-NW 6.2 C 19.7 C
10.08.2001 15:00 20.2 C 45 % 1019.1 hPa 0.0 l/m 23.8 km/h (4 Bft) NW 7.7 C 20.2 C
10.08.2001 16:00 20.4 C 46 % 1019.1 hPa 0.0 l/m 16.4 km/h (3 Bft) W-NW 8.3 C 20.4 C
10.08.2001 17:00 19.1 C 46 % 1019.1 hPa 0.0 l/m 11.1 km/h (2 Bft) W-NW 7.3 C 19.1 C
10.08.2001 18:00 19.1 C 49 % 1019.9 hPa 0.0 l/m 15.6 km/h (3 Bft) W-NW 8.1 C 19.1 C
10.08.2001 19:00 18.1 C 53 % 1020.1 hPa 0.0 l/m 8.0 km/h (2 Bft) W-NW 8.3 C 18.1 C
10.08.2001 20:00 17.0 C 58 % 1020.3 hPa 0.0 l/m 3.6 km/h (1 Bft) W-NW 8.6 C 17.0 C
10.08.2001 21:00 15.4 C 66 % 1021.2 hPa 0.0 l/m 0.0 km/h (0 Bft) N 9.0 C 15.4 C
10.08.2001 22:00 14.1 C 73 % 1021.3 hPa 0.0 l/m 0.1 km/h (0 Bft) N 9.3 C 14.1 C
10.08.2001 23:00 12.9 C 80 % 1022.2 hPa 0.0 l/m 0.6 km/h (0 Bft) O 9.5 C 12.9 C
11.08.2001 00:00 12.3 C 82 % 1022.2 hPa 0.0 l/m 0.9 km/h (0 Bft) O 9.3 C 12.3 C
11.08.2001 01:00 11.2 C 85 % 1022.2 hPa 0.0 l/m 0.8 km/h (0 Bft) O-SO 8.8 C 11.2 C
11.08.2001 02:00 10.3 C 88 % 1022.2 hPa 0.0 l/m 1.0 km/h (0 Bft) O 8.5 C 10.3 C
11.08.2001 03:00 9.7 C 91 % 1022.2 hPa 0.0 l/m 2.8 km/h (1 Bft) O-SO 8.2 C 9.6 C
11.08.2001 04:00 9.0 C 93 % 1022.2 hPa 0.0 l/m 2.9 km/h (1 Bft) O-SO 8.0 C 8.9 C
11.08.2001 05:00 8.7 C 94 % 1022.8 hPa 0.0 l/m 1.3 km/h (1 Bft) O-SO 7.8 C 8.7 C
11.08.2001 06:00 8.6 C 95 % 1023.3 hPa 0.0 l/m 1.9 km/h (1 Bft) O-SO 7.9 C 8.4 C
11.08.2001 07:00 9.3 C 93 % 1023.3 hPa 0.0 l/m 0.0 km/h (0 Bft) N 8.3 C 9.3 C
11.08.2001 08:00 10.8 C 88 % 1023.3 hPa 0.0 l/m 0.2 km/h (0 Bft) W-NW 8.8 C 10.8 C
11.08.2001 09:00 12.7 C 79 % 1023.3 hPa 0.0 l/m 0.4 km/h (0 Bft) W 9.1 C 12.7 C
11.08.2001 10:00 15.2 C 65 % 1023.3 hPa 0.0 l/m 2.1 km/h (1 Bft) W-NW 8.6 C 15.2 C
11.08.2001 11:00 17.2 C 59 % 1023.3 hPa 0.0 l/m 3.0 km/h (1 Bft) W-NW 9.1 C 17.2 C
11.08.2001 12:00 18.9 C 48 % 1023.3 hPa 0.0 l/m 2.6 km/h (1 Bft) W 7.5 C 18.9 C
11.08.2001 13:00 19.8 C 49 % 1022.9 hPa 0.0 l/m 2.8 km/h (1 Bft) W-NW 8.7 C 19.8 C
11.08.2001 14:00 20.5 C 47 % 1022.2 hPa 0.0 l/m 4.7 km/h (1 Bft) W-NW 8.7 C 20.5 C
11.08.2001 15:00 21.0 C 42 % 1022.2 hPa 0.0 l/m 13.1 km/h (3 Bft) W-NW 7.7 C 21.0 C
11.08.2001 16:00 22.2 C 38 % 1022.2 hPa 0.0 l/m 3.3 km/h (1 Bft) W-NW 7.3 C 22.2 C
11.08.2001 17:00 20.5 C 47 % 1021.7 hPa 0.0 l/m 2.3 km/h (1 Bft) O-SO 8.7 C 20.5 C
11.08.2001 18:00 20.9 C 44 % 1021.2 hPa 0.0 l/m 4.0 km/h (1 Bft) O-SO 8.0 C 20.9 C
11.08.2001 19:00 19.9 C 45 % 1021.2 hPa 0.0 l/m 0.6 km/h (0 Bft) W 7.7 C 19.9 C
11.08.2001 20:00 17.1 C 62 % 1021.2 hPa 0.0 l/m 4.2 km/h (1 Bft) O 9.7 C 17.1 C
11.08.2001 21:00 14.2 C 76 % 1021.6 hPa 0.0 l/m 1.9 km/h (1 Bft) O-SO 10.0 C 14.2 C
11.08.2001 22:00 13.0 C 81 % 1022.2 hPa 0.0 l/m 1.6 km/h (1 Bft) O-SO 9.9 C 13.0 C
11.08.2001 23:00 11.8 C 85 % 1022.2 hPa 0.0 l/m 0.4 km/h (0 Bft) O-SO 9.4 C 11.8 C
12.08.2001 00:00 10.9 C 88 % 1022.2 hPa 0.0 l/m 0.2 km/h (0 Bft) W-NW 9.0 C 10.9 C
12.08.2001 01:00 10.6 C 88 % 1022.1 hPa 0.0 l/m 0.0 km/h (0 Bft) N 8.7 C 10.6 C
12.08.2001 02:00 10.0 C 88 % 1021.2 hPa 0.0 l/m 0.1 km/h (0 Bft) S-SO 8.1 C 10.0 C
12.08.2001 03:00 8.7 C 93 % 1021.2 hPa 0.0 l/m 0.0 km/h (0 Bft) N 7.6 C 8.7 C
12.08.2001 04:00 8.3 C 94 % 1021.2 hPa 0.0 l/m 1.1 km/h (0 Bft) O-SO 7.3 C 8.2 C
12.08.2001 05:00 8.1 C 95 % 1021.0 hPa 0.0 l/m 0.3 km/h (0 Bft) O 7.3 C 8.1 C
12.08.2001 06:00 7.7 C 95 % 1020.1 hPa 0.0 l/m 0.3 km/h (0 Bft) O 6.9 C 7.7 C
12.08.2001 07:00 8.3 C 95 % 1020.1 hPa 0.0 l/m 0.2 km/h (0 Bft) O 7.5 C 8.3 C
12.08.2001 08:00 10.4 C 91 % 1020.1 hPa 0.0 l/m 0.0 km/h (0 Bft) N 8.9 C 10.4 C
12.08.2001 09:00 12.9 C 79 % 1020.1 hPa 0.0 l/m 0.7 km/h (0 Bft) W-NW 9.3 C 12.9 C
12.08.2001 10:00 15.9 C 66 % 1019.5 hPa 0.0 l/m 0.6 km/h (0 Bft) NW 9.6 C 15.9 C
12.08.2001 11:00 17.9 C 59 % 1019.1 hPa 0.0 l/m 2.5 km/h (1 Bft) W-SW 9.8 C 17.9 C
12.08.2001 12:00 20.7 C 50 % 1018.7 hPa 0.0 l/m 9.3 km/h (2 Bft) O-SO 9.8 C 20.7 C
12.08.2001 13:00 22.2 C 45 % 1018.1 hPa 0.0 l/m 4.9 km/h (1 Bft) O-SO 9.5 C 22.2 C
12.08.2001 14:00 23.0 C 42 % 1017.3 hPa 0.0 l/m 2.8 km/h (1 Bft) O-SO 9.4 C 23.0 C
12.08.2001 15:00 23.7 C 40 % 1016.4 hPa 0.0 l/m 3.8 km/h (1 Bft) W-NW 9.3 C 23.7 C
12.08.2001 16:00 24.0 C 37 % 1016.0 hPa 0.0 l/m 1.8 km/h (1 Bft) W 8.4 C 24.0 C
12.08.2001 17:00 24.3 C 37 % 1015.0 hPa 0.0 l/m 1.6 km/h (1 Bft) W 8.9 C 24.3 C
12.08.2001 18:00 24.2 C 38 % 1014.9 hPa 0.0 l/m 0.5 km/h (0 Bft) W 9.1 C 24.2 C
12.08.2001 19:00 22.8 C 44 % 1014.8 hPa 0.0 l/m 0.6 km/h (0 Bft) SO 9.9 C 22.8 C
12.08.2001 20:00 19.2 C 64 % 1014.9 hPa 0.0 l/m 3.7 km/h (1 Bft) O-SO 12.2 C 19.2 C
12.08.2001 21:00 16.6 C 73 % 1014.9 hPa 0.0 l/m 5.6 km/h (1 Bft) O-SO 11.8 C 16.6 C
12.08.2001 22:00 14.5 C 80 % 1015.2 hPa 0.0 l/m 2.0 km/h (1 Bft) O-SO 11.1 C 14.5 C
12.08.2001 23:00 13.1 C 86 % 1015.0 hPa 0.0 l/m 1.6 km/h (1 Bft) O-SO 10.8 C 13.1 C
Min-Datum _ 12.08.01 12.08.01 08.08.01 - 06.08.01 - 10.08.01 12.08.01
_ Min-Zeit 06:03 17:57 05:23 - 00:00 - 13:16 06:03
Minimum _ 7.5 C 33 % 1005.6 hPa - 0.0 km/h (0 Bft) - 4.9 C 7.5 C
Max-Datum _ 07.08.01 10.08.01 11.08.01 08.08.01 10.08.01 - 08.08.01 07.08.01
_ Max-Zeit 16:58 01:04 05:26 11:17 14:46 - 14:44 16:58
Maximum _ 24.9 C 96 % 1023.3 hPa 8.7 l/m 34.2 km/h
W-NW (5 Bft)
- 17.7 C 24.9 C
Durchschnitt _ 16.8 C 76 % 1015.1 hPa #29.2 l/m 3.8 km/h (1 Bft) W-NW 12.0 C 16.8 C

Durchschnitt Minimum Temp.16.0 C
Durchschnitt Maximum Temp.17.5 C
© Kaiko 2001